Time,TemperatureF,DewpointF,PressureIn,WindDirection,WindDirectionDegrees,WindSpeedMPH,WindSpeedGustMPH,Humidity,HourlyPrecipIn,Conditions,Clouds,dailyrainin,SoftwareType,DateUTC
2013-10-10 00:10:00,51.2,46.0,30.17,East,94,1.0,1.0,81,0.00,,,0.00,weatherlink.com 1.10,2013-10-10 04:10:00,
2013-10-10 00:25:00,51.4,46.0,30.17,NE,56,0.0,1.0,81,0.00,,,0.00,weatherlink.com 1.10,2013-10-10 04:25:00,
2013-10-10 00:40:00,51.2,46.0,30.17,NE,56,0.0,0.0,81,0.00,,,0.00,weatherlink.com 1.10,2013-10-10 04:40:00,
2013-10-10 00:55:00,50.5,45.0,30.17,NE,56,0.0,0.0,82,0.00,,,0.00,weatherlink.com 1.10,2013-10-10 04:55:00,
2013-10-10 01:10:00,49.0,44.0,30.17,NE,55,0.0,0.0,84,0.00,,,0.00,weatherlink.com 1.10,2013-10-10 05:10:00,
2013-10-10 01:26:00,48.1,44.0,30.16,NE,55,0.0,0.0,87,0.00,,,0.00,weatherlink.com 1.10,2013-10-10 05:26:00,
2013-10-10 01:41:00,47.9,45.0,30.16,NE,55,0.0,0.0,89,0.00,,,0.00,weatherlink.com 1.10,2013-10-10 05:41:00,
2013-10-10 01:56:00,47.5,45.0,30.17,NE,55,0.0,0.0,90,0.00,,,0.00,weatherlink.com 1.10,2013-10-10 05:56:00,
2013-10-10 02:11:00,47.2,45.0,30.17,NE,56,0.0,0.0,91,0.00,,,0.00,weatherlink.com 1.10,2013-10-10 06:11:00,
2013-10-10 02:26:00,47.1,45.0,30.17,NE,55,0.0,0.0,91,0.00,,,0.00,weatherlink.com 1.10,2013-10-10 06:26:00,
2013-10-10 02:41:00,46.8,45.0,30.18,NE,56,0.0,0.0,92,0.00,,,0.00,weatherlink.com 1.10,2013-10-10 06:41:00,
2013-10-10 02:56:00,46.8,45.0,30.18,NE,55,0.0,0.0,92,0.00,,,0.00,weatherlink.com 1.10,2013-10-10 06:56:00,
2013-10-10 03:11:00,46.1,44.0,30.18,NE,55,0.0,0.0,92,0.00,,,0.00,weatherlink.com 1.10,2013-10-10 07:11:00,
2013-10-10 03:41:00,45.3,44.0,30.17,NE,56,0.0,0.0,94,0.00,,,0.00,weatherlink.com 1.10,2013-10-10 07:41:00,
2013-10-10 03:56:00,45.5,44.0,30.17,NE,56,0.0,0.0,94,0.00,,,0.00,weatherlink.com 1.10,2013-10-10 07:56:00,
2013-10-10 04:26:00,45.1,44.0,30.17,NE,56,0.0,0.0,94,0.00,,,0.00,weatherlink.com 1.10,2013-10-10 08:26:00,
2013-10-10 04:41:00,45.1,44.0,30.17,NE,55,0.0,0.0,94,0.00,,,0.00,weatherlink.com 1.10,2013-10-10 08:41:00,
2013-10-10 04:56:00,44.9,43.0,30.17,NE,55,0.0,0.0,94,0.00,,,0.00,weatherlink.com 1.10,2013-10-10 08:56:00,
2013-10-10 05:11:00,44.7,43.0,30.18,NE,55,0.0,0.0,95,0.00,,,0.00,weatherlink.com 1.10,2013-10-10 09:11:00,
2013-10-10 05:26:00,44.5,43.0,30.18,NE,55,0.0,0.0,95,0.00,,,0.00,weatherlink.com 1.10,2013-10-10 09:26:00,
2013-10-10 05:41:00,44.6,43.0,30.18,NE,55,0.0,0.0,95,0.00,,,0.00,weatherlink.com 1.10,2013-10-10 09:41:00,
2013-10-10 06:11:00,44.4,43.0,30.18,NE,56,0.0,0.0,95,0.00,,,0.00,weatherlink.com 1.10,2013-10-10 10:11:00,
2013-10-10 06:26:00,43.7,42.0,30.18,NE,55,0.0,0.0,95,0.00,,,0.00,weatherlink.com 1.10,2013-10-10 10:26:00,
2013-10-10 06:41:00,43.7,42.0,30.18,NE,55,0.0,0.0,95,0.00,,,0.00,weatherlink.com 1.10,2013-10-10 10:41:00,
2013-10-10 06:56:00,43.2,42.0,30.18,NE,55,0.0,0.0,95,0.00,,,0.00,weatherlink.com 1.10,2013-10-10 10:56:00,
2013-10-10 07:26:00,42.5,42.0,30.18,NE,56,0.0,0.0,96,0.00,,,0.00,weatherlink.com 1.10,2013-10-10 11:26:00,
2013-10-10 07:41:00,42.8,42.0,30.18,NE,56,0.0,0.0,96,0.00,,,0.00,weatherlink.com 1.10,2013-10-10 11:41:00,
2013-10-10 07:56:00,42.9,42.0,30.18,NE,55,0.0,0.0,96,0.00,,,0.00,weatherlink.com 1.10,2013-10-10 11:56:00,
2013-10-10 08:11:00,43.7,43.0,30.18,NE,55,0.0,0.0,96,0.00,,,0.00,weatherlink.com 1.10,2013-10-10 12:11:00,
2013-10-10 08:26:00,44.1,43.0,30.18,NE,55,0.0,0.0,96,0.00,,,0.00,weatherlink.com 1.10,2013-10-10 12:26:00,
2013-10-10 08:41:00,44.4,43.0,30.18,NE,56,0.0,0.0,96,0.00,,,0.00,weatherlink.com 1.10,2013-10-10 12:41:00,
2013-10-10 08:56:00,45.1,44.0,30.18,NE,55,0.0,0.0,97,0.00,,,0.00,weatherlink.com 1.10,2013-10-10 12:56:00,
2013-10-10 09:11:00,46.2,45.0,30.18,NE,56,0.0,0.0,97,0.00,,,0.00,weatherlink.com 1.10,2013-10-10 13:11:00,
2013-10-10 09:26:00,47.6,47.0,30.18,SE,137,2.0,2.0,97,0.00,,,0.00,weatherlink.com 1.10,2013-10-10 13:26:00,
2013-10-10 09:41:00,49.7,49.0,30.18,SSE,155,0.0,2.0,97,0.00,,,0.00,weatherlink.com 1.10,2013-10-10 13:41:00,
2013-10-10 09:56:00,53.2,51.0,30.19,SE,135,1.0,3.0,93,0.00,,,0.00,weatherlink.com 1.10,2013-10-10 13:56:00,
2013-10-10 10:11:00,56.6,52.0,30.19,SSE,163,1.0,2.0,85,0.00,,,0.00,weatherlink.com 1.10,2013-10-10 14:11:00,
2013-10-10 10:27:00,59.5,52.0,30.19,SSE,165,1.0,3.0,77,0.00,,,0.00,weatherlink.com 1.10,2013-10-10 14:27:00,
2013-10-10 10:42:00,61.9,53.0,30.19,SSW,212,1.0,2.0,72,0.00,,,0.00,weatherlink.com 1.10,2013-10-10 14:42:00,
2013-10-10 11:12:00,65.5,54.0,30.19,SSW,195,1.0,2.0,67,0.00,,,0.00,weatherlink.com 1.10,2013-10-10 15:12:00,
2013-10-10 11:27:00,66.2,53.0,30.19,SW,219,2.0,5.0,62,0.00,,,0.00,weatherlink.com 1.10,2013-10-10 15:27:00,
2013-10-10 11:42:00,67.1,53.0,30.18,SSW,200,0.0,4.0,62,0.00,,,0.00,weatherlink.com 1.10,2013-10-10 15:42:00,
2013-10-10 11:57:00,68.1,54.0,30.18,ESE,122,1.0,4.0,60,0.00,,,0.00,weatherlink.com 1.10,2013-10-10 15:57:00,
2013-10-10 12:12:00,69.4,52.0,30.18,WSW,246,1.0,5.0,55,0.00,,,0.00,weatherlink.com 1.10,2013-10-10 16:12:00,
2013-10-10 12:27:00,70.4,53.0,30.18,South,179,0.0,3.0,54,0.00,,,0.00,weatherlink.com 1.10,2013-10-10 16:27:00,
2013-10-10 12:42:00,71.2,52.0,30.17,SSE,163,2.0,5.0,50,0.00,,,0.00,weatherlink.com 1.10,2013-10-10 16:42:00,
2013-10-10 12:57:00,70.8,50.0,30.17,NNE,12,3.0,5.0,48,0.00,,,0.00,weatherlink.com 1.10,2013-10-10 16:57:00,
2013-10-10 13:12:00,70.8,49.0,30.17,SSE,160,4.0,6.0,47,0.00,,,0.00,weatherlink.com 1.10,2013-10-10 17:12:00,
2013-10-10 13:27:00,71.4,49.0,30.16,SSW,208,3.0,4.0,46,0.00,,,0.00,weatherlink.com 1.10,2013-10-10 17:27:00,
2013-10-10 13:42:00,71.8,50.0,30.15,South,170,0.0,3.0,46,0.00,,,0.00,weatherlink.com 1.10,2013-10-10 17:42:00,
2013-10-10 13:57:00,73.2,51.0,30.15,WSW,245,0.0,4.0,45,0.00,,,0.00,weatherlink.com 1.10,2013-10-10 17:57:00,
2013-10-10 14:12:00,73.2,49.0,30.14,West,266,1.0,4.0,43,0.00,,,0.00,weatherlink.com 1.10,2013-10-10 18:12:00,
2013-10-10 14:28:00,73.3,51.0,30.14,SSW,208,1.0,4.0,45,0.00,,,0.00,weatherlink.com 1.10,2013-10-10 18:28:00,
2013-10-10 14:43:00,73.4,51.0,30.13,SW,228,0.0,5.0,46,0.00,,,0.00,weatherlink.com 1.10,2013-10-10 18:43:00,
2013-10-10 14:58:00,73.7,49.0,30.12,SSE,162,3.0,4.0,42,0.00,,,0.00,weatherlink.com 1.10,2013-10-10 18:58:00,
2013-10-10 15:13:00,72.5,50.0,30.12,SW,215,1.0,6.0,46,0.00,,,0.00,weatherlink.com 1.10,2013-10-10 19:13:00,
2013-10-10 15:28:00,72.7,48.0,30.11,SW,215,1.0,6.0,42,0.00,,,0.00,weatherlink.com 1.10,2013-10-10 19:28:00,
2013-10-10 15:43:00,72.9,48.0,30.11,West,277,1.0,4.0,42,0.00,,,0.00,weatherlink.com 1.10,2013-10-10 19:43:00,
2013-10-10 15:58:00,73.3,48.0,30.11,South,186,6.0,6.0,41,0.00,,,0.00,weatherlink.com 1.10,2013-10-10 19:58:00,
2013-10-10 16:13:00,73.6,49.0,30.10,West,269,0.0,3.0,42,0.00,,,0.00,weatherlink.com 1.10,2013-10-10 20:13:00,
2013-10-10 16:28:00,74.0,48.0,30.09,ENE,73,1.0,4.0,40,0.00,,,0.00,weatherlink.com 1.10,2013-10-10 20:28:00,
2013-10-10 16:43:00,74.0,50.0,30.09,ENE,76,2.0,2.0,43,0.00,,,0.00,weatherlink.com 1.10,2013-10-10 20:43:00,
2013-10-10 16:58:00,74.7,50.0,30.09,SSE,163,0.0,5.0,42,0.00,,,0.00,weatherlink.com 1.10,2013-10-10 20:58:00,
2013-10-10 17:13:00,75.0,48.0,30.09,SE,124,1.0,4.0,38,0.00,,,0.00,weatherlink.com 1.10,2013-10-10 21:13:00,
2013-10-10 17:28:00,74.8,50.0,30.08,SW,214,0.0,2.0,42,0.00,,,0.00,weatherlink.com 1.10,2013-10-10 21:28:00,
2013-10-10 17:43:00,74.1,49.0,30.08,SE,138,0.0,2.0,41,0.00,,,0.00,weatherlink.com 1.10,2013-10-10 21:43:00,
2013-10-10 17:58:00,74.1,51.0,30.08,NNE,18,1.0,2.0,44,0.00,,,0.00,weatherlink.com 1.10,2013-10-10 21:58:00,
2013-10-10 18:13:00,73.3,49.0,30.08,SE,131,0.0,1.0,43,0.00,,,0.00,weatherlink.com 1.10,2013-10-10 22:13:00,
2013-10-10 18:43:00,71.1,50.0,30.08,ESE,110,0.0,1.0,48,0.00,,,0.00,weatherlink.com 1.10,2013-10-10 22:43:00,
2013-10-10 18:58:00,68.2,50.0,30.08,ESE,110,0.0,0.0,52,0.00,,,0.00,weatherlink.com 1.10,2013-10-10 22:58:00,
2013-10-10 19:13:00,65.5,49.0,30.08,ESE,110,0.0,0.0,55,0.00,,,0.00,weatherlink.com 1.10,2013-10-10 23:13:00,
2013-10-10 19:28:00,63.6,50.0,30.09,ESE,110,0.0,0.0,61,0.00,,,0.00,weatherlink.com 1.10,2013-10-10 23:28:00,
2013-10-10 19:43:00,61.7,50.0,30.08,East,100,0.0,0.0,65,0.00,,,0.00,weatherlink.com 1.10,2013-10-10 23:43:00,
2013-10-10 19:58:00,60.5,49.0,30.09,East,100,0.0,0.0,67,0.00,,,0.00,weatherlink.com 1.10,2013-10-10 23:58:00,
2013-10-10 20:13:00,59.3,50.0,30.09,East,101,0.0,0.0,71,0.00,,,0.00,weatherlink.com 1.10,2013-10-11 00:13:00,
2013-10-10 20:28:00,57.2,49.0,30.09,East,101,0.0,0.0,74,0.00,,,0.00,weatherlink.com 1.10,2013-10-11 00:28:00,
2013-10-10 20:43:00,56.9,49.0,30.09,East,100,0.0,1.0,75,0.00,,,0.00,weatherlink.com 1.10,2013-10-11 00:43:00,
2013-10-10 20:58:00,55.3,49.0,30.09,East,100,0.0,0.0,78,0.00,,,0.00,weatherlink.com 1.10,2013-10-11 00:58:00,
2013-10-10 21:13:00,54.1,48.0,30.09,East,100,0.0,0.0,81,0.00,,,0.00,weatherlink.com 1.10,2013-10-11 01:13:00,
2013-10-10 21:28:00,53.8,48.0,30.09,East,101,0.0,0.0,81,0.00,,,0.00,weatherlink.com 1.10,2013-10-11 01:28:00,
2013-10-10 21:43:00,52.6,48.0,30.09,East,101,0.0,0.0,84,0.00,,,0.00,weatherlink.com 1.10,2013-10-11 01:43:00,
2013-10-10 21:58:00,51.8,47.0,30.09,East,100,0.0,0.0,84,0.00,,,0.00,weatherlink.com 1.10,2013-10-11 01:58:00,
2013-10-10 22:13:00,51.2,47.0,30.09,East,101,0.0,0.0,86,0.00,,,0.00,weatherlink.com 1.10,2013-10-11 02:13:00,
2013-10-10 22:28:00,50.6,47.0,30.09,East,100,0.0,0.0,88,0.00,,,0.00,weatherlink.com 1.10,2013-10-11 02:28:00,
2013-10-10 22:43:00,49.7,46.0,30.09,East,100,0.0,0.0,88,0.00,,,0.00,weatherlink.com 1.10,2013-10-11 02:43:00,
2013-10-10 22:58:00,49.4,46.0,30.09,East,100,0.0,0.0,89,0.00,,,0.00,weatherlink.com 1.10,2013-10-11 02:58:00,
2013-10-10 23:13:00,48.9,46.0,30.09,East,101,0.0,0.0,90,0.00,,,0.00,weatherlink.com 1.10,2013-10-11 03:13:00,
2013-10-10 23:28:00,48.5,46.0,30.09,East,101,0.0,0.0,90,0.00,,,0.00,weatherlink.com 1.10,2013-10-11 03:28:00,
2013-10-10 23:43:00,47.8,45.0,30.09,East,101,0.0,0.0,91,0.00,,,0.00,weatherlink.com 1.10,2013-10-11 03:43:00,
2013-10-10 23:58:00,47.2,45.0,30.09,East,100,0.0,0.0,91,0.00,,,0.00,weatherlink.com 1.10,2013-10-11 03:58:00,